Boston, Massachusetts
Traffic Map
Current Weather Conditions
Boston, Massachusetts
Overcast Light Rain
Overcast
54°
Feels Like: 54°
Wind Chill: 54° Ceiling: 500
Heat Index: 54° Visibility: 10mi
Dew Point: 52° Wind: 5mph
Humidity: 93% Direction: 120° (ESE)
Pressure: 30.05in Gusts: 0mph
Raw Report DataKBOS 300854Z 12004KT 10SM -RA BKN005 OVC011 12/11 A3005 RMK AO2 RAE01B39 SLP174 P0000 60007 T01220111 58020
Traffic Incident Summary
Active as of:
Severity:
Category:
InformationThere was an issue retrieving the traffic information for this location. Please try a different location or try again shortly.
Advertisements
Track Severe Weather on mobile